createdAt,value
2022-08-29T00:00:47.411Z,36.87
2022-08-29T00:03:14.021Z,37.02
2022-08-29T00:05:42.462Z,37.23
2022-08-29T00:08:09.407Z,37.57
2022-08-29T00:10:37.886Z,37.47
2022-08-29T00:13:06.741Z,37.45
2022-08-29T00:15:44.637Z,37.53
2022-08-29T00:18:14.097Z,37.64
2022-08-29T00:20:41.869Z,37.85
2022-08-29T00:23:09.128Z,38.02
2022-08-29T00:25:35.988Z,38.15
2022-08-29T00:28:02.948Z,38.36
2022-08-29T00:30:30.053Z,38.24
2022-08-29T00:32:56.714Z,38.22
2022-08-29T00:35:27.426Z,38.32
2022-08-29T00:37:54.951Z,38.61
2022-08-29T00:40:29.664Z,38.44
2022-08-29T00:42:56.975Z,38.57
2022-08-29T00:45:24.567Z,38.74
2022-08-29T00:48:02.323Z,38.38
2022-08-29T00:50:33.954Z,38.41
2022-08-29T00:53:04.645Z,38.97
2022-08-29T00:55:35.290Z,39.14
2022-08-29T00:58:06.147Z,39.40
2022-08-29T01:00:33.121Z,39.42
2022-08-29T01:02:59.933Z,39.49
2022-08-29T01:05:27.082Z,39.21
2022-08-29T01:07:54.542Z,39.19
2022-08-29T01:10:40.547Z,39.13
2022-08-29T01:13:09.277Z,39.54
2022-08-29T01:15:37.127Z,39.89
2022-08-29T01:18:06.199Z,39.68
2022-08-29T01:20:49.938Z,39.83
2022-08-29T01:23:23.878Z,39.84
2022-08-29T01:25:51.545Z,39.76
2022-08-29T01:28:33.065Z,39.76
2022-08-29T01:31:09.354Z,39.91
2022-08-29T01:33:58.179Z,39.80
2022-08-29T01:36:32.336Z,40.55
2022-08-29T01:39:00.129Z,40.39
2022-08-29T01:41:28.180Z,40.39
2022-08-29T01:43:56.467Z,40.21
2022-08-29T01:46:27.265Z,40.80
2022-08-29T01:48:54.279Z,40.83
2022-08-29T01:51:21.437Z,41.17
2022-08-29T01:53:48.202Z,40.80
2022-08-29T01:56:17.187Z,40.93
2022-08-29T01:58:45.415Z,41.20
2022-08-29T02:01:15.421Z,40.92
2022-08-29T02:03:42.504Z,41.67
2022-08-29T02:06:10.373Z,41.35
2022-08-29T02:08:38.644Z,41.67
2022-08-29T02:11:09.928Z,41.84
2022-08-29T02:13:40.265Z,42.06
2022-08-29T02:16:07.563Z,41.85
2022-08-29T02:18:34.610Z,41.70
2022-08-29T02:21:01.792Z,41.72
2022-08-29T02:23:31.242Z,41.64
2022-08-29T02:25:58.601Z,41.52
2022-08-29T02:28:25.375Z,41.54
2022-08-29T02:30:56.658Z,41.91
2022-08-29T02:33:24.422Z,41.80
2022-08-29T02:35:52.052Z,41.70
2022-08-29T02:38:19.440Z,41.87
2022-08-29T02:40:47.655Z,41.87
2022-08-29T02:43:17.386Z,42.03
2022-08-29T02:45:44.189Z,42.49
2022-08-29T02:48:12.031Z,42.02
2022-08-29T02:50:45.233Z,42.52
2022-08-29T02:53:13.868Z,43.00
2022-08-29T02:55:40.661Z,42.41
2022-08-29T02:58:07.860Z,42.57
2022-08-29T03:00:35.902Z,42.28
2022-08-29T03:03:04.686Z,42.66
2022-08-29T03:05:37.107Z,42.53
2022-08-29T03:08:07.813Z,42.47
2022-08-29T03:10:35.644Z,42.66
2022-08-29T03:13:05.889Z,42.68
2022-08-29T03:15:32.890Z,42.90
2022-08-29T03:17:59.613Z,43.05
2022-08-29T03:20:27.320Z,43.43
2022-08-29T03:22:54.692Z,43.20
2022-08-29T03:25:22.651Z,43.14
2022-08-29T03:27:49.494Z,43.04
2022-08-29T03:30:17.463Z,43.19
2022-08-29T03:32:44.802Z,43.59
2022-08-29T03:35:13.308Z,43.34
2022-08-29T03:37:40.450Z,43.34
2022-08-29T03:40:08.561Z,43.45
2022-08-29T03:42:35.462Z,43.49
2022-08-29T03:45:05.336Z,43.89
2022-08-29T03:47:32.227Z,44.15
2022-08-29T03:49:58.913Z,43.89
2022-08-29T03:52:25.560Z,44.45
2022-08-29T03:54:52.428Z,43.90
2022-08-29T03:57:19.136Z,43.90
2022-08-29T03:59:46.087Z,44.40
2022-08-29T04:02:13.005Z,44.19
2022-08-29T04:04:58.160Z,44.21
2022-08-29T04:07:25.012Z,44.31
2022-08-29T04:09:51.653Z,44.14
2022-08-29T04:12:18.894Z,44.27
2022-08-29T04:14:45.577Z,44.30
2022-08-29T04:17:13.089Z,44.04
2022-08-29T04:19:39.999Z,44.44
2022-08-29T04:22:07.995Z,43.87
2022-08-29T04:24:35.278Z,43.70
2022-08-29T04:27:02.116Z,43.82
2022-08-29T04:29:29.259Z,43.77
2022-08-29T04:31:55.969Z,43.72
2022-08-29T04:34:23.041Z,43.95
2022-08-29T04:36:49.759Z,44.18
2022-08-29T04:39:16.628Z,44.63
2022-08-29T04:41:43.648Z,44.41
2022-08-29T04:44:11.947Z,44.68
2022-08-29T04:46:39.446Z,44.52
2022-08-29T04:49:06.277Z,44.53
2022-08-29T04:51:34.716Z,44.62
2022-08-29T04:54:01.724Z,44.40
2022-08-29T04:56:28.429Z,44.98
2022-08-29T04:58:56.436Z,44.80
2022-08-29T05:01:24.320Z,45.09
2022-08-29T05:03:54.226Z,45.14
2022-08-29T05:06:22.945Z,45.22
2022-08-29T05:08:59.083Z,45.08
2022-08-29T05:11:28.849Z,45.28
2022-08-29T05:13:55.619Z,45.04
2022-08-29T05:16:22.357Z,45.09
2022-08-29T05:18:49.301Z,45.19
2022-08-29T05:21:42.582Z,44.83
2022-08-29T05:24:11.720Z,44.87
2022-08-29T05:26:43.051Z,44.91
2022-08-29T05:29:12.078Z,44.83
2022-08-29T05:31:41.946Z,44.89
2022-08-29T05:34:16.287Z,44.90
2022-08-29T05:36:57.259Z,44.50
2022-08-29T05:39:23.970Z,44.41
2022-08-29T05:41:50.611Z,44.42
2022-08-29T05:44:17.309Z,44.58
2022-08-29T05:46:44.109Z,44.33
2022-08-29T05:49:10.801Z,43.84
2022-08-29T05:51:39.784Z,44.07
2022-08-29T05:54:07.276Z,44.37
2022-08-29T05:56:34.021Z,44.29
2022-08-29T05:59:00.869Z,44.41
2022-08-29T06:01:32.702Z,44.09
2022-08-29T06:04:00.832Z,44.08
2022-08-29T06:06:29.343Z,43.44
2022-08-29T06:08:57.490Z,43.05
2022-08-29T06:11:29.262Z,42.84
2022-08-29T06:13:56.532Z,43.09
2022-08-29T06:16:25.236Z,43.33
2022-08-29T06:18:52.395Z,43.64
2022-08-29T06:21:19.971Z,43.53
2022-08-29T06:23:47.626Z,43.34
2022-08-29T06:26:15.822Z,43.31
2022-08-29T06:28:47.522Z,42.68
2022-08-29T06:31:21.461Z,43.37
2022-08-29T06:33:51.692Z,43.63
2022-08-29T06:36:18.688Z,43.21
2022-08-29T06:38:45.545Z,43.38
2022-08-29T06:41:14.301Z,43.08
2022-08-29T06:43:42.024Z,42.59
2022-08-29T06:46:09.533Z,42.52
2022-08-29T06:48:36.246Z,42.87
2022-08-29T06:51:03.821Z,42.51
2022-08-29T06:53:32.511Z,42.57
2022-08-29T06:56:05.357Z,42.22
2022-08-29T06:58:32.883Z,42.24
2022-08-29T07:01:04.736Z,42.21
2022-08-29T07:03:31.429Z,42.01
2022-08-29T07:05:58.127Z,41.70
2022-08-29T07:08:24.924Z,41.23
2022-08-29T07:10:52.381Z,40.96
2022-08-29T07:13:18.991Z,41.15
2022-08-29T07:15:45.866Z,40.71
2022-08-29T07:18:12.661Z,40.34
2022-08-29T07:20:40.084Z,40.00
2022-08-29T07:23:08.126Z,40.17
2022-08-29T07:25:36.017Z,40.32
2022-08-29T07:28:03.541Z,39.93
2022-08-29T07:30:31.418Z,40.08
2022-08-29T07:32:58.591Z,40.03
2022-08-29T07:35:30.417Z,39.35
2022-08-29T07:38:00.977Z,38.87
2022-08-29T07:40:28.254Z,38.54
2022-08-29T07:42:54.927Z,38.63
2022-08-29T07:45:21.762Z,38.71
2022-08-29T07:47:48.475Z,38.77
2022-08-29T07:50:15.223Z,38.64
2022-08-29T07:52:42.061Z,38.63
2022-08-29T07:55:10.184Z,38.68
2022-08-29T07:57:40.009Z,38.35
2022-08-29T08:00:12.215Z,38.70
2022-08-29T08:02:41.658Z,38.79
2022-08-29T08:05:09.056Z,38.46
2022-08-29T08:07:36.694Z,38.45
2022-08-29T08:10:07.514Z,38.26
2022-08-29T08:12:34.369Z,39.18
2022-08-29T08:15:08.269Z,39.01
2022-08-29T08:17:35.204Z,38.60
2022-08-29T08:20:04.198Z,38.57
2022-08-29T08:22:30.905Z,37.95
2022-08-29T08:24:57.517Z,37.69
2022-08-29T08:27:24.309Z,37.41
2022-08-29T08:29:51.159Z,37.51
2022-08-29T08:32:19.939Z,37.77
2022-08-29T08:34:47.186Z,37.59
2022-08-29T08:37:19.453Z,38.01
2022-08-29T08:39:58.808Z,38.20
2022-08-29T08:42:31.510Z,38.18
2022-08-29T08:45:11.344Z,37.85
2022-08-29T08:47:47.589Z,37.83
2022-08-29T08:50:20.590Z,37.46
2022-08-29T08:52:58.638Z,37.38
2022-08-29T08:55:47.520Z,37.38
2022-08-29T08:58:34.574Z,37.06
2022-08-29T09:01:14.292Z,37.45
2022-08-29T09:03:50.221Z,37.76
2022-08-29T09:06:35.787Z,37.54
2022-08-29T09:09:14.502Z,37.55
2022-08-29T09:12:05.850Z,37.55
2022-08-29T09:15:00.395Z,36.45
2022-08-29T09:17:41.306Z,36.70
2022-08-29T09:20:16.905Z,36.96
2022-08-29T09:22:52.344Z,37.50
2022-08-29T09:25:18.983Z,37.41
2022-08-29T09:27:45.711Z,37.26
2022-08-29T09:30:20.545Z,37.09
2022-08-29T09:33:00.682Z,36.88
2022-08-29T09:35:48.841Z,36.66
2022-08-29T09:38:18.473Z,36.77
2022-08-29T09:41:04.001Z,36.59
2022-08-29T09:43:44.235Z,36.80
2022-08-29T09:46:11.189Z,36.94
2022-08-29T09:48:43.864Z,36.70
2022-08-29T09:51:16.259Z,36.68
2022-08-29T09:53:43.623Z,36.39
2022-08-29T09:56:18.992Z,36.36
2022-08-29T09:58:56.284Z,36.60
2022-08-29T10:01:27.605Z,36.60
2022-08-29T10:04:02.273Z,36.22
2022-08-29T10:06:33.203Z,36.14
2022-08-29T10:09:10.405Z,35.64
2022-08-29T10:11:56.577Z,35.58
2022-08-29T10:14:34.365Z,35.62
2022-08-29T10:17:25.388Z,35.45
2022-08-29T10:19:52.141Z,35.57
2022-08-29T10:22:30.699Z,35.84
2022-08-29T10:25:13.414Z,35.57
2022-08-29T10:28:08.409Z,35.87
2022-08-29T10:31:00.445Z,35.42
2022-08-29T10:33:54.898Z,35.27
2022-08-29T10:36:29.276Z,36.00
2022-08-29T10:39:17.058Z,35.31
2022-08-29T10:42:01.242Z,35.86
2022-08-29T10:44:48.209Z,35.87
2022-08-29T10:47:36.744Z,36.03
2022-08-29T10:50:43.074Z,35.55
2022-08-29T10:53:31.373Z,35.20
2022-08-29T10:56:06.446Z,35.00
2022-08-29T10:58:48.952Z,34.52
2022-08-29T11:01:29.560Z,34.22
2022-08-29T11:04:05.297Z,35.16
2022-08-29T11:06:44.619Z,34.30
2022-08-29T11:09:22.120Z,34.01
2022-08-29T11:12:06.351Z,34.40
2022-08-29T11:14:46.189Z,35.15
2022-08-29T11:17:16.465Z,34.18
2022-08-29T11:19:59.317Z,34.03
2022-08-29T11:23:05.721Z,33.79
2022-08-29T11:25:36.481Z,33.57
2022-08-29T11:28:34.721Z,33.83
2022-08-29T11:31:12.312Z,34.58
2022-08-29T11:33:57.459Z,33.99
2022-08-29T11:36:49.114Z,33.02
2022-08-29T11:39:24.840Z,32.56
2022-08-29T11:41:58.425Z,32.58
2022-08-29T11:44:37.356Z,32.01
2022-08-29T11:47:31.960Z,31.84
2022-08-29T11:50:16.063Z,32.96
2022-08-29T11:52:58.576Z,32.36
2022-08-29T11:55:39.350Z,31.63
2022-08-29T11:58:15.278Z,31.63
2022-08-29T12:00:51.632Z,32.79
2022-08-29T12:03:34.096Z,32.94
2022-08-29T12:06:04.871Z,33.67
2022-08-29T12:08:48.053Z,32.71
2022-08-29T12:11:14.827Z,32.96
2022-08-29T12:13:47.998Z,32.53
2022-08-29T12:16:18.210Z,32.78
2022-08-29T12:18:51.105Z,31.79
2022-08-29T12:21:46.981Z,32.44
2022-08-29T12:24:27.954Z,33.15
2022-08-29T12:26:55.055Z,31.12
2022-08-29T12:29:31.129Z,31.23
2022-08-29T12:32:23.027Z,30.97
2022-08-29T12:35:23.174Z,31.68
2022-08-29T12:38:18.363Z,32.10
2022-08-29T12:41:08.833Z,31.94
2022-08-29T12:43:45.499Z,32.36
2022-08-29T12:46:26.026Z,32.22
2022-08-29T12:49:02.832Z,31.57
2022-08-29T12:51:41.732Z,31.76
2022-08-29T12:54:11.433Z,32.22
2022-08-29T12:56:43.068Z,32.40
2022-08-29T12:59:18.023Z,31.70
2022-08-29T13:01:49.013Z,32.53
2022-08-29T13:04:19.771Z,31.93
2022-08-29T13:07:02.048Z,31.47
2022-08-29T13:09:31.707Z,32.27
2022-08-29T13:12:25.165Z,32.62
2022-08-29T13:14:54.854Z,31.44
2022-08-29T13:17:28.129Z,31.86
2022-08-29T13:20:32.434Z,31.66
2022-08-29T13:23:25.993Z,30.98
2022-08-29T13:26:02.433Z,30.65
2022-08-29T13:28:44.877Z,31.35
2022-08-29T13:31:11.591Z,30.33
2022-08-29T13:34:00.268Z,31.00
2022-08-29T13:36:26.868Z,30.09
2022-08-29T13:39:15.380Z,29.44
2022-08-29T13:41:46.421Z,29.72
2022-08-29T13:44:22.001Z,31.43
2022-08-29T13:46:52.145Z,30.53
2022-08-29T13:49:24.514Z,30.48
2022-08-29T13:51:51.543Z,29.92
2022-08-29T13:54:18.827Z,29.04
2022-08-29T13:56:52.303Z,28.93
2022-08-29T13:59:25.884Z,29.94
2022-08-29T14:02:10.225Z,28.42
2022-08-29T14:04:39.836Z,28.80
2022-08-29T14:07:09.209Z,28.67
2022-08-29T14:09:39.395Z,28.81
2022-08-29T14:12:06.869Z,27.95
2022-08-29T14:14:33.637Z,28.10
2022-08-29T14:17:00.649Z,28.48
2022-08-29T14:19:29.195Z,28.42
2022-08-29T14:21:59.106Z,27.13
2022-08-29T14:24:28.953Z,26.48
2022-08-29T14:26:59.510Z,26.75
2022-08-29T14:29:33.819Z,26.24
2022-08-29T14:32:03.030Z,26.28
2022-08-29T14:34:32.771Z,25.69
2022-08-29T14:37:01.244Z,25.62
2022-08-29T14:39:28.553Z,25.35
2022-08-29T14:41:55.764Z,25.52
2022-08-29T14:44:23.448Z,25.42
2022-08-29T14:46:51.398Z,24.72
2022-08-29T14:49:18.961Z,24.34
2022-08-29T14:51:45.656Z,24.58
2022-08-29T14:54:13.151Z,24.15
2022-08-29T14:56:50.045Z,24.01
2022-08-29T14:59:18.953Z,23.77
2022-08-29T15:01:49.918Z,23.80
2022-08-29T15:04:21.817Z,22.32
2022-08-29T15:07:02.633Z,21.40
2022-08-29T15:09:29.339Z,21.36
2022-08-29T15:11:56.042Z,21.39
2022-08-29T15:14:23.101Z,20.71
2022-08-29T15:16:49.754Z,20.12
2022-08-29T15:22:05.416Z,20.79
2022-08-29T15:24:32.854Z,23.64
2022-08-29T15:26:59.870Z,24.60
2022-08-29T15:29:27.586Z,24.49
2022-08-29T15:31:57.195Z,24.92
2022-08-29T15:34:25.899Z,27.05
2022-08-29T15:36:54.240Z,26.23
2022-08-29T15:39:21.997Z,27.35
2022-08-29T15:41:48.658Z,27.08
2022-08-29T15:44:15.733Z,26.20
2022-08-29T15:46:47.895Z,27.46
2022-08-29T15:49:19.359Z,27.57
2022-08-29T15:51:46.498Z,28.75
2022-08-29T15:54:14.296Z,28.08
2022-08-29T15:56:41.548Z,27.79
2022-08-29T15:59:10.769Z,27.53
2022-08-29T16:01:52.200Z,28.85
2022-08-29T16:04:22.189Z,28.54
2022-08-29T16:06:50.162Z,28.25
2022-08-29T16:09:17.538Z,28.15
2022-08-29T16:11:45.352Z,27.87
2022-08-29T16:16:59.506Z,28.27
2022-08-29T16:19:26.123Z,28.33
2022-08-29T16:21:53.718Z,28.18
2022-08-29T16:24:21.801Z,29.19
2022-08-29T16:26:48.742Z,28.49
2022-08-29T16:29:15.457Z,28.89
2022-08-29T16:31:53.953Z,29.37
2022-08-29T16:34:22.164Z,28.73
2022-08-29T16:36:48.968Z,28.88
2022-08-29T16:39:15.836Z,28.40
2022-08-29T16:41:45.217Z,27.97
2022-08-29T16:44:11.861Z,27.88
2022-08-29T16:46:38.588Z,27.75
2022-08-29T16:49:05.616Z,28.08
2022-08-29T16:51:32.276Z,27.71
2022-08-29T16:54:02.468Z,28.35
2022-08-29T16:56:29.180Z,28.10
2022-08-29T16:58:59.443Z,28.72
2022-08-29T17:01:34.423Z,28.54
2022-08-29T17:04:02.749Z,28.58
2022-08-29T17:06:31.124Z,28.75
2022-08-29T17:08:58.711Z,28.83
2022-08-29T17:11:25.811Z,28.52
2022-08-29T17:13:54.076Z,28.39
2022-08-29T17:16:21.682Z,29.06
2022-08-29T17:18:49.145Z,28.00
2022-08-29T17:21:16.469Z,28.46
2022-08-29T17:23:44.147Z,28.54
2022-08-29T17:26:13.060Z,28.16
2022-08-29T17:28:40.083Z,28.25
2022-08-29T17:31:07.606Z,27.86
2022-08-29T17:33:34.460Z,27.69
2022-08-29T17:36:01.447Z,28.52
2022-08-29T17:38:28.524Z,28.20
2022-08-29T17:40:59.193Z,28.59
2022-08-29T17:43:27.353Z,28.19
2022-08-29T17:45:54.858Z,27.92
2022-08-29T17:48:22.522Z,28.41
2022-08-29T17:50:50.027Z,28.27
2022-08-29T17:53:18.651Z,28.85
2022-08-29T17:55:46.250Z,28.65
2022-08-29T17:58:14.538Z,28.49
2022-08-29T18:00:41.235Z,28.76
2022-08-29T18:03:10.434Z,28.66
2022-08-29T18:05:37.945Z,28.57
2022-08-29T18:08:05.959Z,28.76
2022-08-29T18:10:32.857Z,28.56
2022-08-29T18:12:59.767Z,28.85
2022-08-29T18:15:26.516Z,29.03
2022-08-29T18:17:54.201Z,29.48
2022-08-29T18:20:23.310Z,29.09
2022-08-29T18:22:50.670Z,28.99
2022-08-29T18:25:22.210Z,29.33
2022-08-29T18:27:50.328Z,29.00
2022-08-29T18:30:17.305Z,29.17
2022-08-29T18:32:44.083Z,29.55
2022-08-29T18:35:11.069Z,29.25
2022-08-29T18:37:37.819Z,29.83
2022-08-29T18:40:08.078Z,29.61
2022-08-29T18:42:40.904Z,29.87
2022-08-29T18:45:08.305Z,29.45
2022-08-29T18:47:35.112Z,29.74
2022-08-29T18:50:20.781Z,30.04
2022-08-29T18:52:52.729Z,29.51
2022-08-29T18:55:19.766Z,30.13
2022-08-29T18:57:48.133Z,29.85
2022-08-29T19:00:16.187Z,29.94
2022-08-29T19:02:43.564Z,29.77
2022-08-29T19:05:11.051Z,31.22
2022-08-29T19:07:38.719Z,31.04
2022-08-29T19:10:06.805Z,30.86
2022-08-29T19:12:33.740Z,31.10
2022-08-29T19:15:00.524Z,30.28
2022-08-29T19:17:27.221Z,30.52
2022-08-29T19:20:12.579Z,30.42
2022-08-29T19:22:39.442Z,30.17
2022-08-29T19:25:08.599Z,31.07
2022-08-29T19:27:43.669Z,30.61
2022-08-29T19:30:14.750Z,30.49
2022-08-29T19:32:41.451Z,30.13
2022-08-29T19:35:12.884Z,30.14
2022-08-29T19:37:41.944Z,30.07
2022-08-29T19:40:10.951Z,29.73
2022-08-29T19:42:38.506Z,29.17
2022-08-29T19:45:08.161Z,29.89
2022-08-29T19:47:35.032Z,29.81
2022-08-29T19:50:02.367Z,30.08
2022-08-29T19:52:31.408Z,30.22
2022-08-29T19:55:00.140Z,30.21
2022-08-29T19:57:28.079Z,29.75
2022-08-29T19:59:54.814Z,30.00
2022-08-29T20:02:21.764Z,29.89
2022-08-29T20:04:48.613Z,30.07
2022-08-29T20:07:15.260Z,29.77
2022-08-29T20:09:42.549Z,29.68
2022-08-29T20:12:09.931Z,29.65
2022-08-29T20:14:37.342Z,29.52
2022-08-29T20:17:09.538Z,29.86
2022-08-29T20:19:37.492Z,29.49
2022-08-29T20:22:07.211Z,29.59
2022-08-29T20:24:34.661Z,29.92
2022-08-29T20:27:02.892Z,29.96
2022-08-29T20:29:30.391Z,29.70
2022-08-29T20:31:58.874Z,29.78
2022-08-29T20:34:29.657Z,29.87
2022-08-29T20:37:08.963Z,29.39
2022-08-29T20:39:49.176Z,29.71
2022-08-29T20:42:20.277Z,29.67
2022-08-29T20:44:48.401Z,29.57
2022-08-29T20:47:18.258Z,29.50
2022-08-29T20:49:46.691Z,29.40
2022-08-29T20:52:17.546Z,29.75
2022-08-29T20:54:46.205Z,29.58
2022-08-29T20:57:14.853Z,29.77
2022-08-29T20:59:42.804Z,29.57
2022-08-29T21:02:10.469Z,29.53
2022-08-29T21:04:56.261Z,29.94
2022-08-29T21:07:23.208Z,29.55
2022-08-29T21:09:50.370Z,29.66
2022-08-29T21:12:18.806Z,29.87
2022-08-29T21:14:46.243Z,29.90
2022-08-29T21:17:13.680Z,29.86
2022-08-29T21:19:41.368Z,29.59
2022-08-29T21:22:09.376Z,30.22
2022-08-29T21:24:36.481Z,29.93
2022-08-29T21:27:03.181Z,29.89
2022-08-29T21:29:29.937Z,29.65
2022-08-29T21:31:57.869Z,29.70
2022-08-29T21:34:25.235Z,30.02
2022-08-29T21:36:52.035Z,29.99
2022-08-29T21:39:28.607Z,30.39
2022-08-29T21:41:57.179Z,29.87
2022-08-29T21:44:23.879Z,29.89
2022-08-29T21:46:50.701Z,30.42
2022-08-29T21:49:21.674Z,30.11
2022-08-29T21:51:48.823Z,30.10
2022-08-29T21:54:17.274Z,29.92
2022-08-29T21:56:45.021Z,30.16
2022-08-29T21:59:14.057Z,30.37
2022-08-29T22:01:41.540Z,30.06
2022-08-29T22:04:11.263Z,30.46
2022-08-29T22:06:46.776Z,30.45
2022-08-29T22:09:19.479Z,30.66
2022-08-29T22:11:48.710Z,30.44
2022-08-29T22:14:15.387Z,30.56
2022-08-29T22:16:42.132Z,30.70
2022-08-29T22:19:12.022Z,30.72
2022-08-29T22:21:47.035Z,30.85
2022-08-29T22:24:15.216Z,30.62
2022-08-29T22:26:42.651Z,30.69
2022-08-29T22:29:11.783Z,30.92
2022-08-29T22:31:42.275Z,30.91
2022-08-29T22:34:11.059Z,30.79
2022-08-29T22:36:37.748Z,30.93
2022-08-29T22:39:05.373Z,30.82
2022-08-29T22:41:32.368Z,30.70
2022-08-29T22:46:47.896Z,30.91
2022-08-29T22:49:14.642Z,30.96
2022-08-29T22:51:41.299Z,30.83
2022-08-29T22:54:26.635Z,31.12
2022-08-29T22:56:54.493Z,31.31
2022-08-29T22:59:21.994Z,31.27
2022-08-29T23:01:49.228Z,31.34
2022-08-29T23:04:16.339Z,31.28
2022-08-29T23:06:43.275Z,31.55
2022-08-29T23:09:10.465Z,31.79
2022-08-29T23:11:37.223Z,31.95
2022-08-29T23:14:04.425Z,32.09
2022-08-29T23:16:32.937Z,32.24
2022-08-29T23:19:03.496Z,32.26
2022-08-29T23:21:31.974Z,32.13
2022-08-29T23:23:59.179Z,32.23
2022-08-29T23:26:26.977Z,32.20
2022-08-29T23:28:54.013Z,32.11
2022-08-29T23:31:22.621Z,32.38
2022-08-29T23:33:49.470Z,32.50
2022-08-29T23:36:16.220Z,32.50
2022-08-29T23:38:43.357Z,32.34
2022-08-29T23:41:10.858Z,32.13
2022-08-29T23:43:37.575Z,32.70
2022-08-29T23:46:05.046Z,32.81
2022-08-29T23:48:33.218Z,32.84
2022-08-29T23:51:04.122Z,32.82
2022-08-29T23:53:30.897Z,33.11
2022-08-29T23:55:57.539Z,33.29
2022-08-29T23:58:24.138Z,33.27
